Time;durP1;ratioP1;P1;durP2;ratioP2;P2;SDS_P1;SDS_P2;PMS_P1;PMS_P2;Temp;Humidity;BMP_temperature;BMP_pressure;BME280_temperature;BME280_humidity;BME280_pressure;Samples;Min_cycle;Max_cycle;Signal;HPM_P1;HPM_P2
2021/07/09 00:01:53;;;;;;;8.30;3.85;;;;;;;;;;4988812;28;20093;-73
2021/07/09 00:04:20;;;;;;;4.32;3.38;;;;;;;;;;4988928;28;20066;-74
2021/07/09 00:06:45;;;;;;;7.80;4.07;;;;;;;;;;4990744;28;20034;-74
2021/07/09 00:09:12;;;;;;;5.90;3.45;;;;;;;;;;4987184;28;20504;-74
2021/07/09 00:11:40;;;;;;;5.22;3.80;;;;;;;;;;4985023;28;20037;-75
2021/07/09 00:14:10;;;;;;;3.80;3.25;;;;;;;;;;4985750;28;20821;-75
2021/07/09 00:16:37;;;;;;;6.55;3.90;;;;;;;;;;4990367;28;20535;-75
2021/07/09 00:19:04;;;;;;;11.38;3.80;;;;;;;;;;4980514;28;20106;-74
2021/07/09 00:21:31;;;;;;;5.68;3.97;;;;;;;;;;4985911;28;20077;-73
2021/07/09 00:23:58;;;;;;;6.85;3.40;;;;;;;;;;4987903;28;20030;-75
2021/07/09 00:26:23;;;;;;;6.07;3.28;;;;;;;;;;4989251;28;20049;-74
2021/07/09 00:28:50;;;;;;;4.57;3.35;;;;;;;;;;4987488;28;20524;-74
2021/07/09 00:31:15;;;;;;;6.50;3.70;;;;;;;;;;4986932;28;20026;-74
2021/07/09 00:33:41;;;;;;;8.20;3.30;;;;;;;;;;4989680;28;20034;-75
2021/07/09 00:36:06;;;;;;;4.00;3.00;;;;;;;;;;4990427;28;20026;-75
2021/07/09 00:38:32;;;;;;;6.53;3.40;;;;;;;;;;4989656;28;20034;-75
2021/07/09 00:40:58;;;;;;;6.50;3.60;;;;;;;;;;4986868;28;20485;-76
2021/07/09 00:43:23;;;;;;;4.00;3.35;;;;;;;;;;4989268;28;20081;-76
2021/07/09 00:45:49;;;;;;;4.07;3.20;;;;;;;;;;4983176;28;20053;-74
2021/07/09 00:48:15;;;;;;;5.68;3.38;;;;;;;;;;4987915;28;20398;-74
2021/07/09 00:50:40;;;;;;;6.85;3.40;;;;;;;;;;4985500;28;20035;-74
2021/07/09 00:53:07;;;;;;;4.97;3.33;;;;;;;;;;4990644;28;20035;-75
2021/07/09 00:55:33;;;;;;;4.35;2.70;;;;;;;;;;4987491;28;20030;-75
2021/07/09 00:58:00;;;;;;;3.72;3.25;;;;;;;;;;4992287;28;20138;-75
2021/07/09 01:00:28;;;;;;;3.95;3.13;;;;;;;;;;4985093;28;20054;-74
2021/07/09 01:02:54;;;;;;;4.45;2.95;;;;;;;;;;4988918;28;20030;-75
2021/07/09 01:05:20;;;;;;;4.70;3.08;;;;;;;;;;4989317;28;20449;-76
2021/07/09 01:07:46;;;;;;;4.50;3.38;;;;;;;;;;4991854;28;20018;-76
2021/07/09 01:10:14;;;;;;;3.72;3.30;;;;;;;;;;4971588;28;20034;-74
2021/07/09 01:12:40;;;;;;;5.95;3.33;;;;;;;;;;4989538;28;20080;-76
2021/07/09 01:15:09;;;;;;;4.40;3.15;;;;;;;;;;4990317;28;20050;-76
2021/07/09 01:17:36;;;;;;;4.60;3.13;;;;;;;;;;4990450;28;20544;-75
2021/07/09 01:20:03;;;;;;;6.13;3.13;;;;;;;;;;4986694;28;20421;-75
2021/07/09 01:22:31;;;;;;;3.45;3.15;;;;;;;;;;4988759;28;20668;-75
2021/07/09 01:24:57;;;;;;;8.65;3.17;;;;;;;;;;4989626;28;20064;-75
2021/07/09 01:27:23;;;;;;;4.70;3.45;;;;;;;;;;4988557;28;20465;-76
2021/07/09 01:29:49;;;;;;;5.63;2.80;;;;;;;;;;4986804;28;20033;-75
2021/07/09 01:32:14;;;;;;;4.88;2.92;;;;;;;;;;4982075;28;20072;-75
2021/07/09 01:34:40;;;;;;;4.57;3.38;;;;;;;;;;4987225;28;20472;-75
2021/07/09 01:37:13;;;;;;;3.80;2.80;;;;;;;;;;4983068;28;20133;-73
2021/07/09 01:39:38;;;;;;;4.05;2.92;;;;;;;;;;4987304;28;20026;-77
2021/07/09 01:42:04;;;;;;;3.97;2.97;;;;;;;;;;4985822;28;20027;-77
2021/07/09 01:44:31;;;;;;;6.28;3.00;;;;;;;;;;4986346;28;20031;-74
2021/07/09 01:46:56;;;;;;;4.63;2.97;;;;;;;;;;4985736;28;20401;-74
2021/07/09 01:49:22;;;;;;;4.43;3.22;;;;;;;;;;4970968;28;20011;-74
2021/07/09 01:51:47;;;;;;;3.88;3.17;;;;;;;;;;4986931;28;20520;-75
2021/07/09 01:54:14;;;;;;;3.92;3.25;;;;;;;;;;4986723;28;20034;-76
2021/07/09 01:56:40;;;;;;;6.13;3.38;;;;;;;;;;4987077;28;20113;-74
2021/07/09 01:59:05;;;;;;;6.28;3.45;;;;;;;;;;4969277;28;20114;-75
2021/07/09 02:01:30;;;;;;;5.70;3.20;;;;;;;;;;4980827;28;20521;-75
2021/07/09 02:03:56;;;;;;;3.78;3.30;;;;;;;;;;4955882;28;20378;-75
2021/07/09 02:06:21;;;;;;;4.95;3.15;;;;;;;;;;4982330;28;20485;-75
2021/07/09 02:08:47;;;;;;;5.40;3.13;;;;;;;;;;4988250;28;20108;-74
2021/07/09 02:11:12;;;;;;;5.47;3.45;;;;;;;;;;4987540;28;20073;-75
2021/07/09 02:13:38;;;;;;;6.32;3.67;;;;;;;;;;4990512;28;20031;-75
2021/07/09 02:16:04;;;;;;;6.05;3.50;;;;;;;;;;4985568;28;20074;-74
2021/07/09 02:18:29;;;;;;;7.40;3.42;;;;;;;;;;4984460;28;20401;-75
2021/07/09 02:20:57;;;;;;;3.92;3.53;;;;;;;;;;4966702;28;20424;-77
2021/07/09 02:23:23;;;;;;;3.58;3.28;;;;;;;;;;4988256;28;20100;-76
2021/07/09 02:25:49;;;;;;;5.90;4.07;;;;;;;;;;4984141;28;20037;-76
2021/07/09 02:28:14;;;;;;;6.05;3.47;;;;;;;;;;4986784;28;20030;-76
2021/07/09 02:30:40;;;;;;;7.65;3.63;;;;;;;;;;4982822;28;20041;-76
2021/07/09 02:33:05;;;;;;;3.78;3.35;;;;;;;;;;4986155;28;20040;-76
2021/07/09 02:35:33;;;;;;;5.32;3.75;;;;;;;;;;4971626;28;20587;-76
2021/07/09 02:37:59;;;;;;;8.25;3.80;;;;;;;;;;4987930;28;20096;-76
2021/07/09 02:40:27;;;;;;;6.75;3.67;;;;;;;;;;4986959;28;20425;-76
2021/07/09 02:42:55;;;;;;;3.97;3.25;;;;;;;;;;4986292;28;20034;-75
2021/07/09 02:45:22;;;;;;;4.45;3.47;;;;;;;;;;4980835;28;20117;-75
2021/07/09 02:47:50;;;;;;;5.28;3.75;;;;;;;;;;4982559;28;20037;-76
2021/07/09 02:50:18;;;;;;;6.45;3.80;;;;;;;;;;4977485;28;20027;-76
2021/07/09 02:52:44;;;;;;;6.30;3.63;;;;;;;;;;4985131;28;20109;-75
2021/07/09 02:55:11;;;;;;;3.83;3.10;;;;;;;;;;4984126;28;20117;-75
2021/07/09 02:57:38;;;;;;;5.53;3.40;;;;;;;;;;4985066;28;20494;-76
2021/07/09 03:00:09;;;;;;;3.75;3.33;;;;;;;;;;4972182;28;20515;-76
2021/07/09 03:02:34;;;;;;;4.05;3.30;;;;;;;;;;4985120;28;20042;-75
2021/07/09 03:05:00;;;;;;;5.38;3.50;;;;;;;;;;4967452;28;20577;-75
2021/07/09 03:07:26;;;;;;;8.05;3.40;;;;;;;;;;4986509;28;20030;-76
2021/07/09 03:09:52;;;;;;;5.50;3.22;;;;;;;;;;4984957;28;20044;-75
2021/07/09 03:12:17;;;;;;;5.10;3.40;;;;;;;;;;4987756;28;20025;-76
2021/07/09 03:14:43;;;;;;;4.13;3.50;;;;;;;;;;4967510;28;20536;-76
2021/07/09 03:17:09;;;;;;;4.78;3.38;;;;;;;;;;4982479;28;20037;-75
2021/07/09 03:19:34;;;;;;;4.35;3.03;;;;;;;;;;4984650;28;20552;-75
2021/07/09 03:22:00;;;;;;;4.82;3.65;;;;;;;;;;4987213;28;20030;-76
2021/07/09 03:24:25;;;;;;;5.35;3.72;;;;;;;;;;4986818;28;20033;-76
2021/07/09 03:26:51;;;;;;;7.40;4.38;;;;;;;;;;4962836;28;20034;-76
2021/07/09 03:29:16;;;;;;;5.95;4.68;;;;;;;;;;4986132;28;20026;-76
2021/07/09 03:31:42;;;;;;;9.50;5.05;;;;;;;;;;4981454;28;20061;-76
2021/07/09 03:34:08;;;;;;;7.00;5.00;;;;;;;;;;4980058;28;20125;-75
2021/07/09 03:36:34;;;;;;;9.48;5.72;;;;;;;;;;4988651;28;20121;-76
2021/07/09 03:39:00;;;;;;;7.95;5.65;;;;;;;;;;4988239;28;20030;-76
2021/07/09 03:41:26;;;;;;;7.57;5.30;;;;;;;;;;4985750;28;20528;-75
2021/07/09 03:43:52;;;;;;;12.70;6.55;;;;;;;;;;4989119;28;20058;-76
2021/07/09 03:46:17;;;;;;;12.50;6.53;;;;;;;;;;4990788;28;20011;-75
2021/07/09 03:48:43;;;;;;;7.88;6.63;;;;;;;;;;4991259;28;20026;-75
2021/07/09 03:51:09;;;;;;;10.48;6.47;;;;;;;;;;4983289;28;20041;-76
2021/07/09 03:53:35;;;;;;;7.10;5.93;;;;;;;;;;4985712;28;20034;-75
2021/07/09 03:56:01;;;;;;;8.60;5.30;;;;;;;;;;4982777;28;20031;-76
2021/07/09 03:58:26;;;;;;;7.32;5.75;;;;;;;;;;4987583;28;20038;-75
2021/07/09 04:00:52;;;;;;;7.68;5.57;;;;;;;;;;4988075;28;20041;-75
2021/07/09 04:03:17;;;;;;;7.90;5.32;;;;;;;;;;4990062;28;20569;-77
2021/07/09 04:05:43;;;;;;;9.75;5.32;;;;;;;;;;4989055;28;20611;-77
2021/07/09 04:08:08;;;;;;;7.70;5.30;;;;;;;;;;4992329;28;20018;-77
2021/07/09 04:10:34;;;;;;;8.90;5.47;;;;;;;;;;4991668;28;20555;-76
2021/07/09 04:12:59;;;;;;;7.78;5.18;;;;;;;;;;4991378;28;20498;-77
2021/07/09 04:15:25;;;;;;;7.70;5.07;;;;;;;;;;4990491;28;20050;-77
2021/07/09 04:17:50;;;;;;;11.00;5.80;;;;;;;;;;4988913;28;20086;-76
2021/07/09 04:20:16;;;;;;;13.10;6.97;;;;;;;;;;4990294;28;20117;-78
2021/07/09 04:22:42;;;;;;;13.77;7.32;;;;;;;;;;4986515;28;20042;-78
2021/07/09 04:25:09;;;;;;;9.45;6.45;;;;;;;;;;4986237;28;20049;-79
2021/07/09 04:27:40;;;;;;;10.35;6.95;;;;;;;;;;4990208;28;20019;-78
2021/07/09 04:30:08;;;;;;;10.35;5.88;;;;;;;;;;4988026;28;20034;-78
2021/07/09 04:32:33;;;;;;;13.60;7.13;;;;;;;;;;4986253;28;20369;-75
2021/07/09 04:34:59;;;;;;;10.05;6.85;;;;;;;;;;4986490;28;20046;-75
2021/07/09 04:37:24;;;;;;;14.05;7.57;;;;;;;;;;4990284;28;20077;-74
2021/07/09 04:39:50;;;;;;;10.95;6.45;;;;;;;;;;4989893;28;20114;-74
2021/07/09 04:42:15;;;;;;;9.38;6.40;;;;;;;;;;4981655;28;20034;-74
2021/07/09 04:44:41;;;;;;;10.02;7.05;;;;;;;;;;4986103;28;20031;-75
2021/07/09 04:47:07;;;;;;;17.13;7.47;;;;;;;;;;4989679;28;20397;-75
2021/07/09 04:49:33;;;;;;;15.15;7.28;;;;;;;;;;4990352;28;20053;-74
2021/07/09 04:51:59;;;;;;;10.30;6.88;;;;;;;;;;4972784;28;20026;-74
2021/07/09 04:54:24;;;;;;;14.25;7.20;;;;;;;;;;4989121;28;20023;-75
2021/07/09 04:56:50;;;;;;;17.98;7.97;;;;;;;;;;4989273;28;20497;-74
2021/07/09 04:59:15;;;;;;;16.38;8.15;;;;;;;;;;4983468;28;20077;-74
2021/07/09 05:01:41;;;;;;;13.55;7.97;;;;;;;;;;4989060;28;20601;-74
2021/07/09 05:04:07;;;;;;;13.32;7.60;;;;;;;;;;4987999;28;20086;-74
2021/07/09 05:06:34;;;;;;;21.17;9.38;;;;;;;;;;4988030;28;20138;-74
2021/07/09 05:09:00;;;;;;;14.20;7.88;;;;;;;;;;4987878;28;20108;-74
2021/07/09 05:11:26;;;;;;;25.42;8.13;;;;;;;;;;4985447;28;20409;-73
2021/07/09 05:13:51;;;;;;;10.85;6.90;;;;;;;;;;4984785;28;20026;-74
2021/07/09 05:16:17;;;;;;;11.40;6.70;;;;;;;;;;4983047;28;20104;-74
2021/07/09 05:18:43;;;;;;;12.05;6.78;;;;;;;;;;4986438;28;20508;-74
2021/07/09 05:21:08;;;;;;;16.55;8.65;;;;;;;;;;4972227;28;20066;-74
2021/07/09 05:23:34;;;;;;;15.57;7.07;;;;;;;;;;4982100;28;20034;-74
2021/07/09 05:26:00;;;;;;;12.50;7.28;;;;;;;;;;4983527;28;20401;-74
2021/07/09 05:28:25;;;;;;;13.93;7.68;;;;;;;;;;4988958;28;20519;-74
2021/07/09 05:30:51;;;;;;;11.55;6.82;;;;;;;;;;4990319;28;20576;-74
2021/07/09 05:33:17;;;;;;;15.00;6.65;;;;;;;;;;4989084;28;20030;-73
2021/07/09 05:35:44;;;;;;;15.27;7.00;;;;;;;;;;4983417;28;20026;-74
2021/07/09 05:38:10;;;;;;;17.02;6.75;;;;;;;;;;4984222;28;20407;-74
2021/07/09 05:40:35;;;;;;;12.88;6.75;;;;;;;;;;4985559;28;20054;-73
2021/07/09 05:43:01;;;;;;;12.32;6.63;;;;;;;;;;4984329;28;20694;-74
2021/07/09 05:45:28;;;;;;;14.60;5.80;;;;;;;;;;4972578;28;20038;-74
2021/07/09 05:47:53;;;;;;;12.13;5.70;;;;;;;;;;4986132;28;20045;-74
2021/07/09 05:50:19;;;;;;;9.32;4.93;;;;;;;;;;4985567;28;20042;-75
2021/07/09 05:52:45;;;;;;;7.85;4.40;;;;;;;;;;4965435;28;20054;-74
2021/07/09 05:55:11;;;;;;;8.20;4.10;;;;;;;;;;4986785;28;20050;-74
2021/07/09 05:57:36;;;;;;;5.53;3.60;;;;;;;;;;5002851;28;20039;-74
2021/07/09 06:00:05;;;;;;;7.38;3.45;;;;;;;;;;4984158;28;20046;-74
2021/07/09 06:02:31;;;;;;;14.55;3.65;;;;;;;;;;4982312;28;20075;-75
2021/07/09 06:04:56;;;;;;;13.45;3.17;;;;;;;;;;4987565;28;20030;-73
2021/07/09 06:07:21;;;;;;;7.00;4.07;;;;;;;;;;4972220;28;20027;-74
2021/07/09 06:09:47;;;;;;;5.30;3.17;;;;;;;;;;4989955;28;20030;-74
2021/07/09 06:12:12;;;;;;;7.15;2.92;;;;;;;;;;4986921;28;20104;-75
2021/07/09 06:14:38;;;;;;;6.93;2.47;;;;;;;;;;4985039;28;20014;-74
2021/07/09 06:17:03;;;;;;;5.20;2.60;;;;;;;;;;4988182;28;20034;-74
2021/07/09 06:19:29;;;;;;;6.18;2.78;;;;;;;;;;4987908;28;20117;-74
2021/07/09 06:21:54;;;;;;;3.22;2.10;;;;;;;;;;4983078;28;20038;-74
2021/07/09 06:24:20;;;;;;;7.53;2.55;;;;;;;;;;4981890;28;20092;-74
2021/07/09 06:26:45;;;;;;;6.40;2.58;;;;;;;;;;4977931;28;20062;-74
2021/07/09 06:29:11;;;;;;;6.13;2.53;;;;;;;;;;4987549;28;20733;-75
2021/07/09 06:31:37;;;;;;;5.60;2.20;;;;;;;;;;4990073;28;20026;-74
2021/07/09 06:34:02;;;;;;;4.47;2.63;;;;;;;;;;4978031;28;20394;-74
2021/07/09 06:36:28;;;;;;;8.25;2.90;;;;;;;;;;4985768;28;20037;-74
2021/07/09 06:38:54;;;;;;;3.92;2.60;;;;;;;;;;4984434;28;20034;-73
2021/07/09 06:41:19;;;;;;;7.68;2.70;;;;;;;;;;4985817;28;20035;-74
2021/07/09 06:43:45;;;;;;;7.15;2.47;;;;;;;;;;4986947;28;20504;-74
2021/07/09 06:46:11;;;;;;;7.85;2.45;;;;;;;;;;4983943;28;20034;-74
2021/07/09 06:48:36;;;;;;;7.25;2.42;;;;;;;;;;4984312;28;20026;-74
2021/07/09 06:51:02;;;;;;;5.68;2.63;;;;;;;;;;4982503;28;20033;-73
2021/07/09 06:53:27;;;;;;;5.10;2.15;;;;;;;;;;4965601;28;20026;-74
2021/07/09 06:55:53;;;;;;;9.65;2.67;;;;;;;;;;4980799;28;20408;-73
2021/07/09 06:58:18;;;;;;;5.32;2.65;;;;;;;;;;4984527;28;20031;-73
2021/07/09 07:00:44;;;;;;;9.70;2.35;;;;;;;;;;4969962;28;20109;-74
2021/07/09 07:03:09;;;;;;;6.15;2.67;;;;;;;;;;4988679;28;20046;-73
2021/07/09 07:05:35;;;;;;;4.95;2.33;;;;;;;;;;4980162;28;20053;-73
2021/07/09 07:08:17;;;;;;;6.03;2.10;;;;;;;;;;4981144;28;20038;-73
2021/07/09 07:10:43;;;;;;;12.27;2.30;;;;;;;;;;4985096;28;20018;-74
2021/07/09 07:13:09;;;;;;;8.55;2.65;;;;;;;;;;4992480;28;21146;-74
2021/07/09 07:15:34;;;;;;;4.05;2.55;;;;;;;;;;4987587;28;20054;-74
2021/07/09 07:18:02;;;;;;;6.60;2.58;;;;;;;;;;4978061;28;20038;-74
2021/07/09 07:20:28;;;;;;;6.03;2.72;;;;;;;;;;4984360;28;20038;-74
2021/07/09 07:22:54;;;;;;;5.30;2.97;;;;;;;;;;4984317;28;20034;-74
2021/07/09 07:25:20;;;;;;;4.90;2.38;;;;;;;;;;4983066;28;20900;-74
2021/07/09 07:27:45;;;;;;;7.82;2.90;;;;;;;;;;4990551;28;20650;-74
2021/07/09 07:30:11;;;;;;;10.05;2.78;;;;;;;;;;4989301;28;20109;-75
2021/07/09 07:32:37;;;;;;;5.43;2.83;;;;;;;;;;4989899;28;20045;-74
2021/07/09 07:35:03;;;;;;;6.95;3.13;;;;;;;;;;4993258;28;20030;-75
2021/07/09 07:37:28;;;;;;;6.97;2.85;;;;;;;;;;4998175;28;20493;-74
2021/07/09 07:39:55;;;;;;;7.60;2.97;;;;;;;;;;4988187;28;20544;-75
2021/07/09 07:42:21;;;;;;;8.80;2.92;;;;;;;;;;4991427;28;20433;-74
2021/07/09 07:44:46;;;;;;;5.40;2.90;;;;;;;;;;4990278;28;20034;-75
2021/07/09 07:47:12;;;;;;;5.15;2.65;;;;;;;;;;4980181;28;20125;-75
2021/07/09 07:49:37;;;;;;;7.05;2.65;;;;;;;;;;4991351;28;20022;-75
2021/07/09 07:52:03;;;;;;;6.13;2.58;;;;;;;;;;4988814;28;20125;-75
2021/07/09 07:54:29;;;;;;;5.05;2.50;;;;;;;;;;4987915;28;20038;-75
2021/07/09 07:56:55;;;;;;;8.73;4.50;;;;;;;;;;4980631;28;20069;-75
2021/07/09 07:59:20;;;;;;;3.65;2.70;;;;;;;;;;4954285;28;20058;-75
2021/07/09 08:01:46;;;;;;;3.42;2.38;;;;;;;;;;4987848;28;20117;-75
2021/07/09 08:04:11;;;;;;;4.25;2.50;;;;;;;;;;4990078;28;20528;-75
2021/07/09 08:06:37;;;;;;;6.28;2.70;;;;;;;;;;4989898;28;20042;-75
2021/07/09 08:09:03;;;;;;;5.57;2.30;;;;;;;;;;4990078;28;20046;-75
2021/07/09 08:11:28;;;;;;;5.75;2.05;;;;;;;;;;4990874;28;20037;-75
2021/07/09 08:13:54;;;;;;;2.95;2.20;;;;;;;;;;4989509;28;20563;-75
2021/07/09 08:16:19;;;;;;;5.70;2.92;;;;;;;;;;4986301;28;20107;-75
2021/07/09 08:18:45;;;;;;;3.75;2.30;;;;;;;;;;4988677;28;20038;-74
2021/07/09 08:21:11;;;;;;;5.47;2.53;;;;;;;;;;4986344;28;20505;-75
2021/07/09 08:23:37;;;;;;;6.07;2.70;;;;;;;;;;4989318;28;20037;-75
2021/07/09 08:26:02;;;;;;;6.05;2.40;;;;;;;;;;4974468;28;20041;-74
2021/07/09 08:28:29;;;;;;;7.22;2.50;;;;;;;;;;4992012;28;20026;-74
2021/07/09 08:30:54;;;;;;;8.43;2.70;;;;;;;;;;4988630;28;20045;-74
2021/07/09 08:33:20;;;;;;;7.85;3.47;;;;;;;;;;4993493;28;20042;-78
2021/07/09 08:35:46;;;;;;;4.18;2.10;;;;;;;;;;4998007;28;20027;-79
2021/07/09 08:38:12;;;;;;;4.60;2.33;;;;;;;;;;4993637;28;20397;-79
2021/07/09 08:40:38;;;;;;;11.18;2.33;;;;;;;;;;4995757;28;20034;-79
2021/07/09 08:43:04;;;;;;;3.42;2.10;;;;;;;;;;4996242;28;20526;-77
2021/07/09 08:45:30;;;;;;;6.30;2.60;;;;;;;;;;4978291;28;20034;-77
2021/07/09 08:47:56;;;;;;;4.55;2.50;;;;;;;;;;4990095;28;20061;-78
2021/07/09 08:50:21;;;;;;;13.93;2.50;;;;;;;;;;4991329;28;20026;-78
2021/07/09 08:52:47;;;;;;;5.72;2.50;;;;;;;;;;4995746;28;20162;-78
2021/07/09 08:55:13;;;;;;;3.75;2.08;;;;;;;;;;4977444;28;20042;-78
2021/07/09 08:57:42;;;;;;;3.10;1.98;;;;;;;;;;4994109;28;20040;-78
2021/07/09 09:00:34;;;;;;;3.88;2.00;;;;;;;;;;4988110;28;20034;-79
2021/07/09 09:03:00;;;;;;;5.15;2.08;;;;;;;;;;4990143;28;20038;-73
2021/07/09 09:05:27;;;;;;;3.17;2.17;;;;;;;;;;4985098;28;20061;-74
2021/07/09 09:08:04;;;;;;;4.13;1.65;;;;;;;;;;4987341;28;20031;-73
2021/07/09 09:10:41;;;;;;;4.10;1.55;;;;;;;;;;4990925;28;20026;-73
2021/07/09 09:13:19;;;;;;;3.55;1.70;;;;;;;;;;4988203;28;20034;-73
2021/07/09 09:15:58;;;;;;;3.30;1.55;;;;;;;;;;4990557;28;20134;-73
2021/07/09 09:18:26;;;;;;;4.85;1.40;;;;;;;;;;4985709;28;20537;-73
2021/07/09 09:21:04;;;;;;;2.55;1.50;;;;;;;;;;4985924;28;20090;-73
2021/07/09 09:23:32;;;;;;;3.80;1.42;;;;;;;;;;4986098;28;20026;-73
2021/07/09 09:25:58;;;;;;;2.03;1.17;;;;;;;;;;4988135;28;20692;-73
2021/07/09 09:28:24;;;;;;;5.60;1.60;;;;;;;;;;4985137;28;20034;-74
2021/07/09 09:30:54;;;;;;;3.63;1.17;;;;;;;;;;4988455;28;20034;-74
2021/07/09 09:33:20;;;;;;;5.10;1.77;;;;;;;;;;4987552;28;20651;-77
2021/07/09 09:35:52;;;;;;;3.92;1.50;;;;;;;;;;4989045;28;20492;-78
2021/07/09 09:38:22;;;;;;;2.17;1.20;;;;;;;;;;4989636;28;20030;-78
2021/07/09 09:40:50;;;;;;;2.33;1.33;;;;;;;;;;4987942;28;20043;-80
2021/07/09 09:43:19;;;;;;;5.10;1.38;;;;;;;;;;4984478;28;20101;-78
2021/07/09 09:45:59;;;;;;;5.90;1.55;;;;;;;;;;4987355;28;20022;-78
2021/07/09 09:48:34;;;;;;;3.47;1.17;;;;;;;;;;4989686;28;20026;-78
2021/07/09 09:51:00;;;;;;;6.45;1.45;;;;;;;;;;4988977;28;20026;-78
2021/07/09 09:53:34;;;;;;;10.52;1.50;;;;;;;;;;4988201;28;20078;-79
2021/07/09 09:56:06;;;;;;;3.05;1.50;;;;;;;;;;4985521;28;20035;-79
2021/07/09 09:58:33;;;;;;;3.05;1.42;;;;;;;;;;4979489;28;20401;-79
2021/07/09 10:00:58;;;;;;;2.63;1.50;;;;;;;;;;4971127;28;20041;-79
2021/07/09 10:03:24;;;;;;;5.75;1.52;;;;;;;;;;4972082;28;20147;-74
2021/07/09 10:05:51;;;;;;;2.55;1.35;;;;;;;;;;4988862;28;20375;-74
2021/07/09 10:08:19;;;;;;;6.32;2.10;;;;;;;;;;4985204;28;20034;-74
2021/07/09 10:10:46;;;;;;;2.20;1.63;;;;;;;;;;4986129;28;20041;-74
2021/07/09 10:13:17;;;;;;;3.72;1.95;;;;;;;;;;4988469;28;20038;-76
2021/07/09 10:15:44;;;;;;;2.10;1.38;;;;;;;;;;4983942;28;20051;-76
2021/07/09 10:18:15;;;;;;;2.03;1.30;;;;;;;;;;4990002;28;20374;-75
2021/07/09 10:20:41;;;;;;;7.15;1.50;;;;;;;;;;4988736;28;20514;-76
2021/07/09 10:23:08;;;;;;;4.10;1.10;;;;;;;;;;4987600;28;20096;-76
2021/07/09 10:25:35;;;;;;;2.60;1.20;;;;;;;;;;4985882;28;20046;-76
2021/07/09 10:28:05;;;;;;;2.78;1.30;;;;;;;;;;4984023;28;20026;-75
2021/07/09 10:30:40;;;;;;;6.03;1.50;;;;;;;;;;4988162;28;20516;-76
2021/07/09 10:33:34;;;;;;;3.67;1.30;;;;;;;;;;4986075;28;20033;-75
2021/07/09 10:36:06;;;;;;;3.70;1.55;;;;;;;;;;4982616;28;20046;-76
2021/07/09 10:38:40;;;;;;;1.67;1.42;;;;;;;;;;4988693;28;20022;-76
2021/07/09 10:41:17;;;;;;;1.63;1.50;;;;;;;;;;4985985;28;20088;-76
2021/07/09 10:44:02;;;;;;;1.58;1.45;;;;;;;;;;4988489;28;20045;-75
2021/07/09 10:46:34;;;;;;;3.33;1.90;;;;;;;;;;4986793;28;20102;-75
2021/07/09 10:48:59;;;;;;;5.80;2.13;;;;;;;;;;4968296;28;20602;-75
2021/07/09 10:51:51;;;;;;;2.33;1.55;;;;;;;;;;4985929;28;20049;-75
2021/07/09 10:54:29;;;;;;;6.15;1.83;;;;;;;;;;4986524;28;20041;-75
2021/07/09 10:57:30;;;;;;;3.85;1.90;;;;;;;;;;4986570;28;20035;-75
2021/07/09 11:00:21;;;;;;;2.33;1.63;;;;;;;;;;4944483;29;20043;-75
2021/07/09 11:03:00;;;;;;;3.05;1.55;;;;;;;;;;4985719;28;20038;-75
2021/07/09 11:05:44;;;;;;;4.35;1.45;;;;;;;;;;4984324;28;20030;-74
2021/07/09 11:11:03;;;;;;;3.28;2.10;;;;;;;;;;4984137;28;20037;-75
2021/07/09 11:13:41;;;;;;;3.08;1.85;;;;;;;;;;5002962;28;20460;-73
2021/07/09 11:16:37;;;;;;;3.88;1.60;;;;;;;;;;4984095;28;20121;-77
2021/07/09 11:19:02;;;;;;;2.70;1.50;;;;;;;;;;4986309;28;20034;-75
2021/07/09 11:21:31;;;;;;;7.85;2.70;;;;;;;;;;4983878;28;20057;-75
2021/07/09 11:24:01;;;;;;;2.13;1.38;;;;;;;;;;4985143;28;20030;-74
2021/07/09 11:26:41;;;;;;;2.17;1.30;;;;;;;;;;4981403;28;20038;-74
2021/07/09 11:29:31;;;;;;;1.65;1.35;;;;;;;;;;4985984;28;20058;-74
2021/07/09 11:32:13;;;;;;;1.80;1.42;;;;;;;;;;4981853;28;20031;-74
2021/07/09 11:34:43;;;;;;;2.47;1.08;;;;;;;;;;4985275;28;20017;-74
2021/07/09 11:37:14;;;;;;;4.45;1.58;;;;;;;;;;4985046;28;20034;-74
2021/07/09 11:39:44;;;;;;;1.15;0.77;;;;;;;;;;4986108;28;20023;-75
2021/07/09 11:42:20;;;;;;;3.78;0.98;;;;;;;;;;4985904;28;20547;-75
2021/07/09 11:44:53;;;;;;;0.82;0.82;;;;;;;;;;4986988;28;20031;-75
2021/07/09 11:47:26;;;;;;;0.88;0.50;;;;;;;;;;4985249;28;20041;-75
2021/07/09 11:49:54;;;;;;;1.27;0.40;;;;;;;;;;4984928;28;20528;-77
2021/07/09 11:52:30;;;;;;;2.10;0.50;;;;;;;;;;4984630;28;20066;-74
2021/07/09 11:54:59;;;;;;;2.25;0.50;;;;;;;;;;4984913;28;20022;-75
2021/07/09 11:57:27;;;;;;;3.97;0.52;;;;;;;;;;4983929;28;20066;-75
2021/07/09 11:59:55;;;;;;;2.83;0.40;;;;;;;;;;4987168;28;20081;-77
2021/07/09 12:02:27;;;;;;;2.05;0.47;;;;;;;;;;4989256;28;20037;-76
2021/07/09 12:04:57;;;;;;;1.53;0.47;;;;;;;;;;4986478;28;20056;-76
2021/07/09 12:07:36;;;;;;;4.53;0.55;;;;;;;;;;4983882;28;20059;-75
2021/07/09 12:10:08;;;;;;;4.50;0.40;;;;;;;;;;4991188;28;20057;-76
2021/07/09 12:12:38;;;;;;;1.48;0.40;;;;;;;;;;4986884;28;20034;-77
2021/07/09 12:15:07;;;;;;;1.75;0.30;;;;;;;;;;4982751;28;20047;-76
2021/07/09 12:17:46;;;;;;;0.63;0.30;;;;;;;;;;4987014;28;20026;-75
2021/07/09 12:20:22;;;;;;;3.92;0.55;;;;;;;;;;4988989;28;20114;-76
2021/07/09 12:22:52;;;;;;;0.60;0.40;;;;;;;;;;4985880;28;20425;-75
2021/07/09 12:25:20;;;;;;;1.42;0.30;;;;;;;;;;4986972;28;20030;-75
2021/07/09 12:27:46;;;;;;;1.45;0.35;;;;;;;;;;4988209;28;20097;-75
2021/07/09 12:30:15;;;;;;;0.63;0.32;;;;;;;;;;4979346;28;20096;-76
2021/07/09 12:32:44;;;;;;;0.90;0.40;;;;;;;;;;4985469;28;20126;-75
2021/07/09 12:35:10;;;;;;;0.88;0.50;;;;;;;;;;4985841;28;20088;-79
2021/07/09 12:37:36;;;;;;;1.02;0.40;;;;;;;;;;4984850;28;20035;-79
2021/07/09 12:40:13;;;;;;;0.57;0.40;;;;;;;;;;4985768;28;20097;-79
2021/07/09 12:42:39;;;;;;;2.13;0.40;;;;;;;;;;4984861;28;20092;-79
2021/07/09 12:45:06;;;;;;;1.00;0.30;;;;;;;;;;4982023;28;20038;-79
2021/07/09 12:47:33;;;;;;;0.57;0.32;;;;;;;;;;4985738;28;20018;-78
2021/07/09 12:50:29;;;;;;;0.95;0.30;;;;;;;;;;4988921;28;20101;-79
2021/07/09 12:52:54;;;;;;;0.57;0.50;;;;;;;;;;4969692;28;20917;-78
2021/07/09 12:55:33;;;;;;;2.53;0.50;;;;;;;;;;4989493;28;20010;-78
2021/07/09 12:58:09;;;;;;;4.45;0.60;;;;;;;;;;4980994;28;20098;-78
2021/07/09 13:00:42;;;;;;;0.80;0.60;;;;;;;;;;4983564;28;20043;-79
2021/07/09 13:03:10;;;;;;;0.57;0.35;;;;;;;;;;4984766;28;20034;-75
2021/07/09 13:05:36;;;;;;;0.80;0.47;;;;;;;;;;4984785;28;20026;-74
2021/07/09 13:08:12;;;;;;;0.60;0.50;;;;;;;;;;4987067;28;20037;-75
2021/07/09 13:10:39;;;;;;;1.98;1.00;;;;;;;;;;4983368;28;20034;-74
2021/07/09 13:13:20;;;;;;;3.40;0.98;;;;;;;;;;4983697;28;20501;-75
2021/07/09 13:15:59;;;;;;;18.77;3.22;;;;;;;;;;4985244;28;20145;-74
2021/07/09 13:18:27;;;;;;;1.20;0.75;;;;;;;;;;4971912;28;20042;-77
2021/07/09 13:21:01;;;;;;;4.30;1.15;;;;;;;;;;4980380;28;20460;-75
2021/07/09 13:23:26;;;;;;;1.55;0.68;;;;;;;;;;4993150;28;20092;-75
2021/07/09 13:26:10;;;;;;;0.90;0.70;;;;;;;;;;4986399;28;20125;-75
2021/07/09 13:28:49;;;;;;;1.60;0.90;;;;;;;;;;4989752;28;20007;-75
2021/07/09 13:31:17;;;;;;;3.58;0.95;;;;;;;;;;4982543;28;20050;-75
2021/07/09 13:33:48;;;;;;;1.65;0.82;;;;;;;;;;4985514;28;20035;-75
2021/07/09 13:36:17;;;;;;;2.15;0.93;;;;;;;;;;4984471;28;20509;-75
2021/07/09 13:38:46;;;;;;;2.28;1.05;;;;;;;;;;4983884;28;20095;-76
2021/07/09 13:41:13;;;;;;;1.77;0.88;;;;;;;;;;4987367;28;20034;-75
2021/07/09 13:43:39;;;;;;;3.25;0.90;;;;;;;;;;4983927;28;20034;-75
2021/07/09 13:46:05;;;;;;;2.17;0.90;;;;;;;;;;4980542;28;20030;-75
2021/07/09 13:48:31;;;;;;;6.45;1.05;;;;;;;;;;4986864;28;20506;-76
2021/07/09 13:50:57;;;;;;;1.95;0.82;;;;;;;;;;4989866;28;20065;-75
2021/07/09 13:53:22;;;;;;;4.35;0.80;;;;;;;;;;4982169;28;20030;-75
2021/07/09 13:55:48;;;;;;;1.23;0.85;;;;;;;;;;4989729;28;20612;-75
2021/07/09 13:58:13;;;;;;;1.65;1.08;;;;;;;;;;4965627;28;20513;-75
2021/07/09 14:00:39;;;;;;;3.67;1.20;;;;;;;;;;4987229;28;20429;-75
2021/07/09 14:03:05;;;;;;;1.67;0.95;;;;;;;;;;4982565;28;20038;-76
2021/07/09 14:05:31;;;;;;;1.58;0.90;;;;;;;;;;4987647;28;20080;-76
2021/07/09 14:07:56;;;;;;;5.50;1.20;;;;;;;;;;4987674;28;20061;-76
2021/07/09 14:10:22;;;;;;;2.30;1.05;;;;;;;;;;4985862;28;20042;-76
2021/07/09 14:12:47;;;;;;;3.53;1.10;;;;;;;;;;4983579;28;20121;-75
2021/07/09 14:15:13;;;;;;;1.85;0.80;;;;;;;;;;4984868;28;20607;-76
2021/07/09 14:17:38;;;;;;;4.38;0.90;;;;;;;;;;4988403;28;20077;-76
2021/07/09 14:20:04;;;;;;;2.30;1.08;;;;;;;;;;4986587;28;20062;-76
2021/07/09 14:22:31;;;;;;;0.93;0.82;;;;;;;;;;4971037;28;20117;-76
2021/07/09 14:24:57;;;;;;;1.60;0.68;;;;;;;;;;4986863;28;20042;-75
2021/07/09 14:27:23;;;;;;;1.27;0.90;;;;;;;;;;4987237;28;20117;-75
2021/07/09 14:29:49;;;;;;;1.67;1.00;;;;;;;;;;4987931;28;20023;-75
2021/07/09 14:32:17;;;;;;;2.75;1.05;;;;;;;;;;4985592;28;20092;-75
2021/07/09 14:34:43;;;;;;;3.40;0.88;;;;;;;;;;4968555;28;20034;-78
2021/07/09 14:37:09;;;;;;;2.35;1.00;;;;;;;;;;4987738;28;20089;-80
2021/07/09 14:39:34;;;;;;;2.78;1.10;;;;;;;;;;4986850;28;20026;-78
2021/07/09 14:42:00;;;;;;;0.93;0.73;;;;;;;;;;4971574;28;20040;-78
2021/07/09 14:44:25;;;;;;;2.15;0.70;;;;;;;;;;4965474;28;20062;-79
2021/07/09 14:46:51;;;;;;;0.65;0.65;;;;;;;;;;4967660;28;20552;-78
2021/07/09 14:49:19;;;;;;;1.35;0.77;;;;;;;;;;4969155;28;20034;-78